Time;durP1;ratioP1;P1;durP2;ratioP2;P2;SDS_P1;SDS_P2;PMS_P1;PMS_P2;Temp;Humidity;BMP_temperature;BMP_pressure;BME280_temperature;BME280_humidity;BME280_pressure;Samples;Min_cycle;Max_cycle;Signal;HPM_P1;HPM_P2
2024/02/10 00:01:37;;;;;;;61.53;39.30;;;4.50;96.40;;;;;;5034089;28;20196;-88
2024/02/10 00:04:06;;;;;;;62.33;37.70;;;4.50;96.40;;;;;;5015747;28;20173;-87
2024/02/10 00:06:39;;;;;;;61.73;38.50;;;4.40;96.30;;;;;;5034001;28;20660;-87
2024/02/10 00:09:08;;;;;;;62.00;37.97;;;4.50;96.40;;;;;;5034112;28;20195;-87
2024/02/10 00:11:34;;;;;;;63.13;39.90;;;4.50;96.40;;;;;;5034100;28;20172;-88
2024/02/10 00:14:00;;;;;;;70.33;39.00;;;4.50;96.40;;;;;;5033915;28;20177;-88
2024/02/10 00:16:26;;;;;;;69.57;38.27;;;4.50;96.40;;;;;;5016141;28;20237;-88
2024/02/10 00:19:02;;;;;;;69.47;41.10;;;4.50;96.40;;;;;;5033695;28;20204;-88
2024/02/10 00:21:29;;;;;;;72.53;40.27;;;4.50;96.40;;;;;;5033748;28;20159;-88
2024/02/10 00:23:55;;;;;;;67.37;37.90;;;4.60;96.40;;;;;;5016060;28;20169;-87
2024/02/10 00:26:22;;;;;;;67.03;38.53;;;4.60;96.40;;;;;;5033703;28;20165;-87
2024/02/10 00:28:51;;;;;;;72.70;40.70;;;4.50;96.40;;;;;;5015790;28;20203;-87
2024/02/10 00:31:16;;;;;;;72.50;40.63;;;4.60;96.40;;;;;;5015828;28;20244;-88
2024/02/10 00:33:46;;;;;;;67.00;38.97;;;4.60;96.40;;;;;;5033787;28;20295;-87
2024/02/10 00:36:12;;;;;;;68.73;41.57;;;4.60;96.40;;;;;;5015900;28;20176;-87
2024/02/10 00:38:43;;;;;;;74.33;40.20;;;4.60;96.40;;;;;;5015938;28;20247;-86
2024/02/10 00:41:10;;;;;;;74.57;39.77;;;4.60;96.40;;;;;;5018435;28;20171;-87
2024/02/10 00:43:42;;;;;;;73.10;39.80;;;4.60;96.40;;;;;;5033581;28;20226;-88
2024/02/10 00:46:09;;;;;;;74.83;40.60;;;4.60;96.40;;;;;;5015869;28;20648;-88
2024/02/10 00:48:36;;;;;;;76.53;39.07;;;4.60;96.40;;;;;;5033574;28;20650;-86
2024/02/10 00:51:04;;;;;;;72.30;39.17;;;4.60;96.40;;;;;;5015969;28;20176;-89
2024/02/10 00:53:30;;;;;;;74.10;40.50;;;4.60;96.40;;;;;;5015530;28;20676;-87
2024/02/10 00:55:55;;;;;;;76.27;40.93;;;4.60;96.40;;;;;;5033149;28;20187;-87
2024/02/10 00:58:21;;;;;;;75.83;39.67;;;4.60;96.40;;;;;;5033083;28;20227;-87
2024/02/10 01:00:46;;;;;;;73.17;39.87;;;4.60;96.50;;;;;;5033286;28;20211;-87
2024/02/10 01:03:13;;;;;;;76.37;40.07;;;4.60;96.40;;;;;;5033161;28;20569;-87
2024/02/10 01:05:39;;;;;;;77.27;39.87;;;4.60;96.50;;;;;;5033056;28;20226;-87
2024/02/10 01:08:05;;;;;;;85.10;40.23;;;4.60;96.50;;;;;;5015350;28;20204;-87
2024/02/10 01:10:31;;;;;;;76.53;40.30;;;4.60;96.50;;;;;;5033442;28;20647;-87
2024/02/10 01:13:03;;;;;;;72.37;38.57;;;4.60;96.50;;;;;;5033010;28;20208;-87
2024/02/10 01:15:32;;;;;;;83.87;39.37;;;4.60;96.50;;;;;;5018935;28;20161;-87
2024/02/10 01:18:00;;;;;;;77.07;38.23;;;4.60;96.50;;;;;;5037248;28;20262;-88
2024/02/10 01:20:26;;;;;;;71.97;37.77;;;4.60;96.50;;;;;;5037242;28;20204;-87
2024/02/10 01:22:51;;;;;;;73.30;33.23;;;4.50;96.50;;;;;;5037031;28;20663;-87
2024/02/10 01:25:17;;;;;;;79.53;34.70;;;4.60;96.50;;;;;;5037364;28;20796;-88
2024/02/10 01:27:44;;;;;;;76.63;39.70;;;4.60;96.50;;;;;;5036978;28;20562;-87
2024/02/10 01:30:10;;;;;;;78.37;40.73;;;4.60;96.50;;;;;;5019342;28;20184;-87
2024/02/10 01:32:36;;;;;;;76.90;39.45;;;4.60;96.60;;;;;;5037100;28;20179;-87
2024/02/10 01:35:03;;;;;;;76.60;38.80;;;4.60;96.50;;;;;;5018998;28;20267;-87
2024/02/10 01:37:30;;;;;;;86.17;41.17;;;4.60;96.50;;;;;;5036603;28;20188;-87
2024/02/10 01:39:55;;;;;;;79.67;38.60;;;4.60;96.50;;;;;;5036792;28;20605;-88
2024/02/10 01:42:37;;;;;;;78.83;39.30;;;4.60;96.60;;;;;;5018899;28;20211;-87
2024/02/10 01:45:08;;;;;;;74.77;40.03;;;4.60;96.60;;;;;;5036676;28;20176;-87
2024/02/10 01:47:52;;;;;;;76.83;38.80;;;4.60;96.60;;;;;;5018802;28;20284;-87
2024/02/10 01:50:17;;;;;;;72.67;34.80;;;4.70;96.60;;;;;;5036875;28;20624;-87
2024/02/10 01:52:44;;;;;;;70.40;33.10;;;4.60;96.60;;;;;;5018555;28;20275;-87
2024/02/10 01:55:10;;;;;;;70.73;33.13;;;4.70;96.60;;;;;;5018750;28;20565;-88
2024/02/10 01:57:35;;;;;;;;;;;4.70;96.60;;;;;;5018789;28;20239;-87
2024/02/10 02:00:05;;;;;;;;;;;4.70;96.60;;;;;;5036665;28;19909;-87
2024/02/10 02:02:31;;;;;;;;;;;4.70;96.60;;;;;;5036731;28;19996;-87
2024/02/10 02:04:59;;;;;;;;;;;4.80;96.60;;;;;;5019182;28;19913;-87
2024/02/10 02:07:25;;;;;;;;;;;4.70;96.60;;;;;;5036758;28;19996;-88
2024/02/10 02:09:51;;;;;;;;;;;4.80;96.60;;;;;;5036620;28;19909;-87
2024/02/10 02:12:16;;;;;;;;;;;4.80;96.60;;;;;;5019059;28;19963;-88
2024/02/10 02:14:47;;;;;;;;;;;4.80;96.60;;;;;;5035205;28;19909;-87
2024/02/10 02:17:12;;;;;;;68.67;32.77;;;4.80;96.60;;;;;;5036316;28;19995;-87
2024/02/10 02:19:40;;;;;;;75.17;34.67;;;4.80;96.60;;;;;;5035971;28;20235;-88
2024/02/10 02:22:09;;;;;;;72.37;32.90;;;4.80;96.60;;;;;;5018283;28;20556;-88
2024/02/10 02:24:34;;;;;;;69.70;33.47;;;4.80;96.60;;;;;;5035855;28;20218;-87
2024/02/10 02:27:00;;;;;;;71.23;33.20;;;4.80;96.60;;;;;;5034925;28;20165;-87
2024/02/10 02:29:26;;;;;;;72.90;34.10;;;4.90;96.60;;;;;;5035768;28;20196;-87
2024/02/10 02:32:00;;;;;;;77.00;33.93;;;4.80;96.60;;;;;;5035697;28;20173;-88
2024/02/10 02:34:33;;;;;;;75.97;33.43;;;4.80;96.60;;;;;;5035867;28;20160;-87
2024/02/10 02:36:59;;;;;;;70.70;32.60;;;4.80;96.60;;;;;;5017824;28;20176;-87
2024/02/10 02:39:25;;;;;;;71.37;33.60;;;4.80;96.60;;;;;;5035599;28;20333;-87
2024/02/10 02:41:51;;;;;;;69.50;32.03;;;4.80;96.60;;;;;;5035594;28;20255;-87
2024/02/10 02:44:17;;;;;;;65.77;30.87;;;4.80;96.60;;;;;;5017757;28;20177;-87
2024/02/10 02:46:43;;;;;;;67.57;30.90;;;4.80;96.60;;;;;;5035589;28;20165;-87
2024/02/10 02:49:15;;;;;;;63.27;30.83;;;4.80;96.60;;;;;;5035442;28;20276;-87
2024/02/10 02:51:41;;;;;;;73.10;31.97;;;4.80;96.60;;;;;;5018269;28;20696;-88
2024/02/10 02:54:08;;;;;;;76.87;31.87;;;4.80;96.60;;;;;;5035902;28;20169;-87
2024/02/10 02:56:34;;;;;;;82.33;32.93;;;4.80;96.60;;;;;;5035576;28;20175;-88
2024/02/10 02:58:59;;;;;;;68.80;31.47;;;4.80;96.60;;;;;;5017463;28;20208;-88
2024/02/10 03:01:25;;;;;;;73.33;32.93;;;4.80;96.60;;;;;;5035398;28;20645;-88
2024/02/10 03:03:51;;;;;;;74.97;34.03;;;4.80;96.60;;;;;;5017820;28;20180;-87
2024/02/10 03:06:18;;;;;;;76.00;33.20;;;4.80;96.60;;;;;;5035623;28;20177;-87
2024/02/10 03:08:45;;;;;;;80.37;33.93;;;4.80;96.60;;;;;;5035427;28;20239;-87
2024/02/10 03:11:13;;;;;;;86.43;36.73;;;4.80;96.60;;;;;;5017404;28;20177;-87
2024/02/10 03:13:43;;;;;;;79.07;33.30;;;4.80;96.60;;;;;;5017541;28;20180;-87
2024/02/10 03:16:09;;;;;;;83.97;33.93;;;4.70;96.60;;;;;;5017488;28;20177;-87
2024/02/10 03:18:39;;;;;;;83.90;33.37;;;4.70;96.60;;;;;;5035116;28;20203;-87
2024/02/10 03:21:05;;;;;;;78.23;33.93;;;4.80;96.60;;;;;;5035280;28;20182;-87
2024/02/10 03:23:31;;;;;;;97.33;35.27;;;4.70;96.60;;;;;;5034976;28;20218;-87
2024/02/10 03:26:01;;;;;;;94.97;34.30;;;4.70;96.60;;;;;;5035027;28;20179;-87
2024/02/10 03:28:27;;;;;;;93.03;33.77;;;4.70;96.60;;;;;;5018282;28;20245;-87
2024/02/10 03:30:52;;;;;;;104.17;35.40;;;4.80;96.60;;;;;;5035160;28;20179;-87
2024/02/10 03:33:18;;;;;;;100.53;34.33;;;4.70;96.60;;;;;;5017154;28;20211;-87
2024/02/10 03:35:43;;;;;;;112.63;35.93;;;4.70;96.60;;;;;;5034909;28;20227;-87
2024/02/10 03:38:09;;;;;;;105.03;34.77;;;4.70;96.60;;;;;;5016940;28;20192;-87
2024/02/10 03:40:35;;;;;;;121.93;36.43;;;4.70;96.60;;;;;;5034989;28;20287;-88
2024/02/10 03:43:00;;;;;;;120.07;41.57;;;4.70;96.60;;;;;;5016925;28;20185;-86
2024/02/10 03:45:33;;;;;;;100.37;36.57;;;4.70;96.60;;;;;;5034852;28;20171;-87
2024/02/10 03:48:07;;;;;;;127.27;38.73;;;4.80;96.70;;;;;;5016693;28;20691;-87
2024/02/10 03:50:33;;;;;;;104.50;39.00;;;4.70;96.70;;;;;;5016583;28;20264;-87
2024/02/10 03:52:59;;;;;;;132.57;40.50;;;4.70;96.70;;;;;;5034305;28;20220;-87
2024/02/10 03:55:25;;;;;;;125.00;38.90;;;4.70;96.70;;;;;;5034429;28;20729;-87
2024/02/10 03:57:53;;;;;;;161.10;41.93;;;4.80;96.70;;;;;;5034172;28;20207;-87
2024/02/10 04:00:25;;;;;;;147.30;41.37;;;4.70;96.70;;;;;;5016490;28;20200;-87
2024/02/10 04:02:52;;;;;;;180.47;42.37;;;4.70;96.70;;;;;;5016196;28;20169;-87
2024/02/10 04:05:18;;;;;;;155.67;40.43;;;4.70;96.70;;;;;;5016555;28;20183;-87
2024/02/10 04:07:49;;;;;;;154.30;41.97;;;4.70;96.70;;;;;;5034324;28;20664;-87
2024/02/10 04:10:15;;;;;;;190.27;43.97;;;4.80;96.70;;;;;;5034841;28;20153;-87
2024/02/10 04:12:41;;;;;;;207.67;43.77;;;4.80;96.70;;;;;;5016665;28;20184;-88
2024/02/10 04:15:11;;;;;;;236.07;45.67;;;4.80;96.70;;;;;;5034325;28;20185;-88
2024/02/10 04:17:37;;;;;;;251.33;46.20;;;4.80;96.70;;;;;;5034707;28;20727;-88
2024/02/10 04:20:03;;;;;;;248.57;44.93;;;4.80;96.70;;;;;;5034679;28;20192;-87
2024/02/10 04:22:29;;;;;;;275.10;46.27;;;4.80;96.70;;;;;;5034245;28;20256;-87
2024/02/10 04:24:57;;;;;;;324.20;50.53;;;4.70;96.70;;;;;;5034616;28;20210;-87
2024/02/10 04:27:23;;;;;;;333.07;48.10;;;4.70;96.70;;;;;;5034625;28;20539;-87
2024/02/10 04:29:49;;;;;;;230.97;42.73;;;4.70;96.70;;;;;;5017515;28;20592;-87
2024/02/10 04:32:14;;;;;;;321.30;46.70;;;4.70;96.80;;;;;;5034548;28;20180;-88
2024/02/10 04:34:43;;;;;;;341.80;47.70;;;4.70;96.80;;;;;;5034473;28;20254;-88
2024/02/10 04:37:10;;;;;;;345.80;46.30;;;4.70;96.80;;;;;;5016443;28;20272;-88
2024/02/10 04:39:37;;;;;;;301.43;45.67;;;4.70;96.80;;;;;;5016421;28;20568;-88
2024/02/10 04:42:05;;;;;;;311.27;46.37;;;4.70;96.80;;;;;;5016370;28;20172;-87
2024/02/10 04:44:31;;;;;;;385.27;46.73;;;4.70;96.80;;;;;;5016241;28;20173;-87
2024/02/10 04:46:56;;;;;;;309.93;46.53;;;4.80;96.80;;;;;;5016133;28;20180;-87
2024/02/10 04:49:25;;;;;;;444.67;53.50;;;4.70;96.80;;;;;;5033850;28;20176;-87
2024/02/10 04:51:51;;;;;;;323.67;45.67;;;4.80;96.80;;;;;;5016274;28;20790;-88
2024/02/10 04:54:17;;;;;;;401.90;48.53;;;4.80;96.90;;;;;;5033997;28;20267;-88
2024/02/10 04:56:42;;;;;;;317.83;45.30;;;4.80;96.90;;;;;;5034117;28;20176;-89
2024/02/10 04:59:08;;;;;;;297.00;45.37;;;4.80;96.90;;;;;;5034009;28;20283;-88
2024/02/10 05:01:33;;;;;;;321.23;46.27;;;4.80;96.90;;;;;;5033831;28;20256;-88
2024/02/10 05:03:59;;;;;;;389.37;50.67;;;4.80;96.90;;;;;;5016340;28;20180;-88
2024/02/10 05:06:28;;;;;;;340.83;46.37;;;4.80;96.90;;;;;;5034098;28;20179;-87
2024/02/10 05:08:54;;;;;;;321.80;45.83;;;4.80;96.90;;;;;;5033939;28;20197;-88
2024/02/10 05:11:21;;;;;;;346.83;46.90;;;4.80;96.90;;;;;;5034171;28;20195;-88
2024/02/10 05:13:46;;;;;;;379.53;50.77;;;4.70;96.90;;;;;;5034291;28;20546;-89
2024/02/10 05:16:14;;;;;;;392.80;47.37;;;4.70;96.90;;;;;;5016268;28;20173;-88
2024/02/10 05:18:40;;;;;;;354.50;45.27;;;4.80;96.90;;;;;;5015952;28;20250;-87
2024/02/10 05:21:05;;;;;;;434.97;50.07;;;4.70;96.90;;;;;;5016238;28;20173;-89
2024/02/10 05:23:33;;;;;;;451.93;53.53;;;4.70;96.90;;;;;;5016004;28;20226;-88
2024/02/10 05:26:00;;;;;;;407.97;46.33;;;4.70;96.90;;;;;;5033872;28;20161;-87
2024/02/10 05:28:26;;;;;;;316.07;43.37;;;4.80;97.00;;;;;;5033498;28;20191;-87
2024/02/10 05:30:56;;;;;;;336.20;43.17;;;4.80;97.00;;;;;;5033877;28;20175;-88
2024/02/10 05:33:23;;;;;;;366.03;46.00;;;4.80;97.00;;;;;;5034015;28;20167;-87
2024/02/10 05:35:49;;;;;;;321.30;45.20;;;4.80;97.00;;;;;;5016623;28;20271;-87
2024/02/10 05:38:16;;;;;;;328.20;44.40;;;4.80;97.00;;;;;;5016064;28;20223;-87
2024/02/10 05:40:42;;;;;;;280.87;41.93;;;4.80;97.00;;;;;;5033575;28;20283;-88
2024/02/10 05:43:08;;;;;;;280.43;42.17;;;4.80;97.00;;;;;;5033531;28;20206;-88
2024/02/10 05:45:34;;;;;;;244.77;40.53;;;4.80;97.00;;;;;;5015977;28;20244;-87
2024/02/10 05:48:00;;;;;;;277.63;40.67;;;4.80;97.00;;;;;;5033850;28;20546;-88
2024/02/10 05:50:27;;;;;;;329.17;45.87;;;4.80;97.00;;;;;;5015866;28;20645;-88
2024/02/10 05:52:57;;;;;;;243.13;43.50;;;4.80;97.00;;;;;;5015895;28;20210;-87
2024/02/10 05:55:27;;;;;;;261.50;41.80;;;4.80;97.00;;;;;;5016024;28;20172;-88
2024/02/10 05:58:01;;;;;;;256.40;42.63;;;4.80;97.00;;;;;;5015984;28;20561;-87
2024/02/10 06:00:27;;;;;;;205.30;40.20;;;4.80;97.00;;;;;;5033551;28;20591;-88
2024/02/10 06:02:53;;;;;;;233.50;41.63;;;4.80;97.00;;;;;;5019459;28;20211;-88
2024/02/10 06:05:19;;;;;;;211.13;42.07;;;4.80;97.00;;;;;;5019599;28;20180;-87
2024/02/10 06:07:45;;;;;;;185.40;39.77;;;4.80;97.00;;;;;;5019565;28;20253;-89
2024/02/10 06:10:13;;;;;;;206.70;41.97;;;4.80;97.00;;;;;;5037225;28;20184;-87
2024/02/10 06:12:46;;;;;;;207.23;42.37;;;4.80;97.00;;;;;;5019562;28;20207;-88
2024/02/10 06:15:13;;;;;;;190.00;38.63;;;4.80;97.00;;;;;;5019285;28;20169;-87
2024/02/10 06:17:39;;;;;;;206.97;42.83;;;4.80;97.00;;;;;;5036960;28;20309;-88
2024/02/10 06:20:12;;;;;;;265.70;45.73;;;4.80;97.00;;;;;;5037171;28;20207;-88
2024/02/10 06:22:38;;;;;;;214.30;41.73;;;4.80;97.00;;;;;;5037130;28;20628;-88
2024/02/10 06:25:04;;;;;;;180.07;39.77;;;4.80;97.00;;;;;;5019306;28;20271;-87
2024/02/10 06:27:31;;;;;;;257.00;46.07;;;4.80;97.00;;;;;;5019309;28;20192;-87
2024/02/10 06:29:58;;;;;;;251.70;45.47;;;4.80;97.10;;;;;;5037265;28;20177;-87
2024/02/10 06:32:23;;;;;;;257.93;43.37;;;4.80;97.10;;;;;;5019066;28;20653;-87
2024/02/10 06:34:51;;;;;;;248.50;44.97;;;4.80;97.00;;;;;;5036984;28;20239;-87
2024/02/10 06:37:19;;;;;;;270.03;47.30;;;4.80;97.00;;;;;;5018912;28;20201;-87
2024/02/10 06:39:45;;;;;;;219.60;44.57;;;4.90;97.10;;;;;;5019173;28;20208;-88
2024/02/10 06:42:11;;;;;;;246.10;45.37;;;4.90;97.10;;;;;;5019219;28;20664;-86
2024/02/10 06:44:39;;;;;;;256.57;42.53;;;4.80;97.10;;;;;;5037240;28;20169;-88
2024/02/10 06:47:07;;;;;;;282.33;45.10;;;4.90;97.10;;;;;;5019189;28;20260;-87
2024/02/10 06:49:34;;;;;;;228.00;44.50;;;4.80;97.10;;;;;;5018601;28;20188;-87
2024/02/10 06:52:02;;;;;;;270.97;46.97;;;4.90;97.10;;;;;;5036372;28;20615;-88
2024/02/10 06:54:28;;;;;;;302.43;46.77;;;4.80;97.10;;;;;;5036589;28;20546;-88
2024/02/10 06:56:55;;;;;;;395.08;64.72;;;4.80;97.10;;;;;;5017106;28;20431;-88
2024/02/10 06:59:23;;;;;;;270.80;48.43;;;4.80;97.10;;;;;;5018692;28;20216;-88
2024/02/10 07:01:52;;;;;;;314.73;50.00;;;4.90;97.10;;;;;;5036005;28;20178;-91
2024/02/10 07:04:18;;;;;;;253.00;45.07;;;4.80;97.10;;;;;;5019149;28;20216;-87
2024/02/10 07:06:43;;;;;;;235.33;45.10;;;4.80;97.10;;;;;;5036752;28;20180;-89
2024/02/10 07:09:09;;;;;;;233.97;45.57;;;4.80;97.10;;;;;;5018298;28;20203;-88
2024/02/10 07:11:34;;;;;;;221.83;46.47;;;4.80;97.10;;;;;;5018288;28;20176;-87
2024/02/10 07:14:00;;;;;;;215.60;45.00;;;4.80;97.10;;;;;;5018316;28;20176;-87
2024/02/10 07:16:25;;;;;;;181.37;44.13;;;4.80;97.10;;;;;;5018870;28;20231;-87
2024/02/10 07:18:52;;;;;;;207.27;47.10;;;4.80;97.10;;;;;;5038057;28;20204;-90
2024/02/10 07:21:18;;;;;;;187.00;45.67;;;4.80;97.10;;;;;;5019950;28;20179;-89
2024/02/10 07:23:44;;;;;;;170.93;44.67;;;4.90;97.10;;;;;;5018987;28;20581;-91
2024/02/10 07:26:10;;;;;;;180.30;48.83;;;4.80;97.10;;;;;;5025933;28;20203;-91
2024/02/10 07:28:35;;;;;;;180.00;47.10;;;4.80;97.10;;;;;;5019124;28;20197;-90
2024/02/10 07:31:02;;;;;;;160.87;46.53;;;4.80;97.10;;;;;;5018811;28;20251;-87
2024/02/10 07:33:29;;;;;;;155.90;47.07;;;4.80;97.10;;;;;;5018308;28;20172;-88
2024/02/10 07:35:58;;;;;;;162.10;47.20;;;4.80;97.10;;;;;;5036024;28;20226;-88
2024/02/10 07:38:24;;;;;;;156.73;46.93;;;4.80;97.10;;;;;;5017956;28;20231;-88
2024/02/10 07:40:49;;;;;;;143.37;45.33;;;4.80;97.10;;;;;;5018103;28;20232;-89
2024/02/10 07:43:16;;;;;;;163.33;46.80;;;4.80;97.10;;;;;;5035151;28;20610;-89
2024/02/10 07:45:45;;;;;;;160.63;43.60;;;4.90;97.10;;;;;;5017364;28;20173;-88
2024/02/10 07:48:10;;;;;;;176.03;46.93;;;4.90;97.10;;;;;;5017059;28;20197;-88
2024/02/10 07:50:38;;;;;;;160.33;45.63;;;4.90;97.10;;;;;;5017140;28;20191;-88
2024/02/10 07:53:05;;;;;;;151.37;45.63;;;4.90;97.10;;;;;;5034666;28;20192;-89
2024/02/10 07:55:36;;;;;;;147.40;43.73;;;4.90;97.10;;;;;;5035091;28;20544;-89
2024/02/10 07:58:04;;;;;;;168.23;45.33;;;4.90;97.20;;;;;;5016931;28;20196;-89
2024/02/10 08:00:32;;;;;;;159.43;44.37;;;5.00;97.20;;;;;;5017004;28;20228;-89
2024/02/10 08:03:02;;;;;;;177.03;44.03;;;4.90;97.10;;;;;;5035194;28;20255;-88
2024/02/10 08:05:28;;;;;;;162.53;44.13;;;4.90;97.10;;;;;;5034517;28;20177;-88
2024/02/10 08:07:56;;;;;;;180.77;47.77;;;4.90;97.10;;;;;;5034770;28;20189;-88
2024/02/10 08:10:21;;;;;;;176.60;48.00;;;4.90;97.10;;;;;;5034681;28;20246;-87
2024/02/10 08:12:50;;;;;;;175.93;47.70;;;5.00;97.10;;;;;;5017029;28;20652;-88
2024/02/10 08:15:15;;;;;;;169.20;45.13;;;5.00;97.20;;;;;;5016770;28;20189;-88
2024/02/10 08:17:41;;;;;;;160.83;44.43;;;5.00;97.20;;;;;;5016627;28;20204;-88
2024/02/10 08:20:11;;;;;;;147.13;44.37;;;5.00;97.10;;;;;;5017109;28;20224;-88
2024/02/10 08:22:36;;;;;;;156.43;45.43;;;5.00;97.10;;;;;;5034465;28;20571;-88
2024/02/10 08:25:04;;;;;;;147.80;45.10;;;5.00;97.20;;;;;;5015971;28;20375;-88
2024/02/10 08:27:31;;;;;;;141.37;44.00;;;5.00;97.20;;;;;;5016682;28;20193;-88
2024/02/10 08:30:04;;;;;;;132.20;42.83;;;5.10;97.20;;;;;;5034384;28;20199;-89
2024/02/10 08:32:31;;;;;;;153.13;45.77;;;5.10;97.20;;;;;;5034609;28;20200;-88
2024/02/10 08:35:00;;;;;;;133.77;42.57;;;5.10;97.20;;;;;;5016156;28;20189;-88
2024/02/10 08:37:29;;;;;;;134.07;42.63;;;5.10;97.20;;;;;;5034300;28;20192;-86
2024/02/10 08:39:55;;;;;;;137.00;41.73;;;5.20;97.20;;;;;;5016542;28;20230;-85
2024/02/10 08:42:22;;;;;;;127.40;42.40;;;5.20;97.20;;;;;;5016858;28;20649;-88
2024/02/10 08:44:49;;;;;;;118.87;42.40;;;5.30;97.20;;;;;;5016815;28;20645;-86
2024/02/10 08:47:15;;;;;;;132.97;44.67;;;5.30;97.20;;;;;;5034391;28;20200;-87
2024/02/10 08:49:40;;;;;;;143.93;42.17;;;5.30;97.20;;;;;;5017276;28;20176;-87
2024/02/10 08:52:16;;;;;;;136.53;42.13;;;5.30;97.20;;;;;;5034158;28;20222;-86
2024/02/10 08:54:43;;;;;;;135.67;42.60;;;5.40;97.20;;;;;;5016401;28;20218;-86
2024/02/10 08:57:15;;;;;;;144.33;42.27;;;5.40;97.20;;;;;;5016812;28;20183;-86
2024/02/10 08:59:41;;;;;;;130.63;41.13;;;5.40;97.20;;;;;;5034077;28;20680;-87
2024/02/10 09:02:08;;;;;;;138.23;42.37;;;5.50;97.20;;;;;;5034833;28;20209;-86
2024/02/10 09:04:38;;;;;;;134.90;42.83;;;5.50;97.20;;;;;;5034027;28;20184;-88
2024/02/10 09:07:04;;;;;;;142.43;42.87;;;5.50;97.20;;;;;;5016298;28;20187;-88
2024/02/10 09:09:30;;;;;;;139.23;40.77;;;5.60;97.20;;;;;;5034005;28;20637;-87
2024/02/10 09:11:56;;;;;;;135.43;41.43;;;5.60;97.20;;;;;;5034542;28;20193;-87
2024/02/10 09:14:22;;;;;;;118.03;40.03;;;5.60;97.20;;;;;;5034168;28;20180;-87
2024/02/10 09:16:47;;;;;;;124.57;42.10;;;5.60;97.20;;;;;;5016861;28;20706;-87
2024/02/10 09:19:15;;;;;;;129.63;43.30;;;5.60;97.20;;;;;;5035019;28;20211;-88
2024/02/10 09:21:41;;;;;;;123.93;41.70;;;5.60;97.20;;;;;;5035491;28;20176;-87
2024/02/10 09:24:09;;;;;;;129.40;40.70;;;5.70;97.20;;;;;;5017409;28;20173;-88
2024/02/10 09:26:35;;;;;;;136.60;43.63;;;5.70;97.20;;;;;;5018529;28;20181;-87
2024/02/10 09:29:01;;;;;;;135.43;41.90;;;5.70;97.20;;;;;;5035118;28;20204;-90
2024/02/10 09:31:28;;;;;;;134.80;42.33;;;5.80;97.20;;;;;;5034385;28;20598;-87
2024/02/10 09:33:54;;;;;;;127.00;40.20;;;5.80;97.20;;;;;;5034277;28;20256;-89
2024/02/10 09:36:19;;;;;;;133.57;42.57;;;5.80;97.20;;;;;;5019466;28;20671;-89
2024/02/10 09:38:45;;;;;;;125.23;40.73;;;5.80;97.20;;;;;;5037984;28;20595;-86
2024/02/10 09:41:12;;;;;;;122.83;39.47;;;5.80;97.20;;;;;;5038572;28;20169;-87
2024/02/10 09:43:39;;;;;;;113.47;38.40;;;5.80;97.20;;;;;;5020308;28;20191;-87
2024/02/10 09:46:06;;;;;;;123.93;41.27;;;5.90;97.20;;;;;;5037880;28;20172;-87
2024/02/10 09:48:38;;;;;;;138.77;44.27;;;5.90;97.20;;;;;;5020116;28;20250;-87
2024/02/10 09:51:04;;;;;;;145.83;41.77;;;6.00;97.20;;;;;;5038043;28;20248;-88
2024/02/10 09:53:29;;;;;;;126.57;41.73;;;6.00;97.20;;;;;;5037420;28;20287;-89
2024/02/10 09:55:56;;;;;;;109.40;37.67;;;6.10;97.20;;;;;;5038924;28;20184;-87
2024/02/10 09:58:25;;;;;;;130.13;41.43;;;6.10;97.20;;;;;;5038079;28;20192;-89
2024/02/10 10:00:50;;;;;;;137.10;41.83;;;6.10;97.20;;;;;;5037930;28;20200;-87
2024/02/10 10:03:16;;;;;;;128.87;41.33;;;6.20;97.20;;;;;;5018929;28;20176;-86
2024/02/10 10:05:42;;;;;;;118.67;40.20;;;6.20;97.20;;;;;;5019064;28;20184;-88
2024/02/10 10:08:10;;;;;;;128.03;40.27;;;6.20;97.20;;;;;;5036232;28;20192;-88
2024/02/10 10:10:36;;;;;;;135.20;42.33;;;6.20;97.20;;;;;;5036267;28;20168;-88
2024/02/10 10:13:02;;;;;;;125.40;40.60;;;6.30;97.10;;;;;;5018993;28;20267;-88
2024/02/10 10:15:29;;;;;;;134.53;43.23;;;6.30;97.10;;;;;;5018590;28;20216;-89
2024/02/10 10:17:55;;;;;;;139.10;40.00;;;6.30;97.10;;;;;;5018407;28;20627;-87
2024/02/10 10:20:21;;;;;;;150.33;42.20;;;6.30;97.10;;;;;;5018403;28;20232;-88
2024/02/10 10:22:50;;;;;;;130.13;41.13;;;6.30;97.10;;;;;;5018389;28;20417;-90
2024/02/10 10:25:15;;;;;;;157.80;43.03;;;6.30;97.10;;;;;;5018443;28;20260;-89
2024/02/10 10:27:41;;;;;;;152.40;41.23;;;6.30;97.10;;;;;;5018364;28;20235;-90
2024/02/10 10:30:11;;;;;;;143.33;41.90;;;6.30;97.10;;;;;;5035934;28;20231;-89
2024/02/10 10:32:40;;;;;;;129.93;41.23;;;6.40;97.20;;;;;;5018240;28;20219;-89
2024/02/10 10:35:09;;;;;;;152.13;43.17;;;6.50;97.20;;;;;;5018103;28;20660;-88
2024/02/10 10:37:36;;;;;;;161.03;41.00;;;6.50;97.20;;;;;;5018016;28;20196;-89
2024/02/10 10:40:02;;;;;;;138.33;40.07;;;6.50;97.10;;;;;;5017945;28;20201;-88
2024/02/10 10:42:29;;;;;;;175.20;43.83;;;6.40;97.10;;;;;;5035814;28;20613;-89
2024/02/10 10:44:56;;;;;;;146.53;41.83;;;6.50;97.10;;;;;;5017847;28;20664;-89
2024/02/10 10:47:24;;;;;;;211.10;46.60;;;6.40;97.10;;;;;;5017156;28;20328;-89
2024/02/10 10:49:54;;;;;;;161.43;42.00;;;6.40;97.10;;;;;;5018450;28;20195;-90
2024/02/10 10:52:24;;;;;;;169.17;41.50;;;6.50;97.20;;;;;;5035458;28;20212;-90
2024/02/10 10:54:50;;;;;;;151.53;43.80;;;6.50;97.10;;;;;;5035658;28;20663;-89
2024/02/10 10:57:22;;;;;;;149.00;42.57;;;6.50;97.20;;;;;;5017885;28;20287;-89
2024/02/10 11:00:11;;;;;;;172.97;45.20;;;6.50;97.20;;;;;;5035359;28;20216;-90
2024/02/10 11:02:40;;;;;;;170.03;44.13;;;6.60;97.20;;;;;;5017752;28;20657;-89
2024/02/10 11:05:12;;;;;;;154.83;42.87;;;6.70;97.20;;;;;;5017891;28;20718;-89
2024/02/10 11:07:42;;;;;;;140.73;40.73;;;6.70;97.20;;;;;;5017533;28;20197;-90
2024/02/10 11:10:09;;;;;;;135.43;43.00;;;6.70;97.20;;;;;;5017725;28;20172;-89
2024/02/10 11:12:35;;;;;;;134.47;43.33;;;6.70;97.20;;;;;;5017965;28;20184;-89
2024/02/10 11:15:01;;;;;;;148.67;45.17;;;6.70;97.20;;;;;;5017806;28;20204;-90
2024/02/10 11:17:29;;;;;;;137.70;41.00;;;6.80;97.20;;;;;;5017266;28;20418;-87
2024/02/10 11:20:04;;;;;;;123.33;41.80;;;6.90;97.20;;;;;;5017220;28;20205;-89
2024/02/10 11:22:42;;;;;;;122.47;40.57;;;6.90;97.20;;;;;;5034965;28;20255;-89
2024/02/10 11:25:11;;;;;;;126.37;41.17;;;6.80;97.20;;;;;;5034971;28;20172;-89
2024/02/10 11:27:41;;;;;;;136.93;41.47;;;6.80;97.20;;;;;;5035489;28;20199;-90
2024/02/10 11:30:07;;;;;;;119.00;40.27;;;6.80;97.20;;;;;;5017576;28;20203;-89
2024/02/10 11:32:33;;;;;;;134.23;42.10;;;6.90;97.20;;;;;;5017841;28;20180;-89
2024/02/10 11:35:00;;;;;;;134.40;42.20;;;6.90;97.20;;;;;;5035001;28;20183;-89
2024/02/10 11:37:26;;;;;;;134.40;43.53;;;7.00;97.20;;;;;;5017034;28;20199;-89
2024/02/10 11:39:56;;;;;;;120.33;40.63;;;7.10;97.30;;;;;;5034617;28;20212;-88
2024/02/10 11:42:23;;;;;;;122.43;41.33;;;7.00;97.20;;;;;;5034736;28;20168;-89
2024/02/10 11:44:50;;;;;;;141.67;43.17;;;6.90;97.20;;;;;;5017007;28;20208;-88
2024/02/10 11:47:16;;;;;;;135.00;40.50;;;6.90;97.20;;;;;;5017548;28;20231;-89
2024/02/10 11:49:43;;;;;;;140.77;41.87;;;7.00;97.20;;;;;;5034442;28;20256;-88
2024/02/10 11:52:08;;;;;;;142.17;40.20;;;7.10;97.20;;;;;;5034383;28;20706;-89
2024/02/10 11:54:37;;;;;;;139.13;39.80;;;7.10;97.20;;;;;;5016832;28;20181;-88
2024/02/10 11:57:04;;;;;;;130.63;38.87;;;7.00;97.20;;;;;;5016601;28;20183;-89
2024/02/10 11:59:32;;;;;;;123.63;37.73;;;7.10;97.20;;;;;;5015595;28;20196;-89
2024/02/10 12:01:59;;;;;;;139.90;39.13;;;7.10;97.20;;;;;;5034217;28;20176;-88
2024/02/10 12:04:26;;;;;;;134.37;37.23;;;7.20;97.20;;;;;;5016712;28;20169;-88
2024/02/10 12:06:52;;;;;;;126.47;36.47;;;7.10;97.20;;;;;;5034348;28;20204;-89
2024/02/10 12:09:19;;;;;;;119.67;38.23;;;7.10;97.20;;;;;;5016404;28;20200;-90
2024/02/10 12:11:46;;;;;;;130.13;40.40;;;7.10;97.20;;;;;;5016410;28;20173;-88
2024/02/10 12:14:14;;;;;;;109.27;36.73;;;7.20;97.20;;;;;;5016295;28;20715;-89
2024/02/10 12:16:44;;;;;;;116.20;42.20;;;7.10;97.20;;;;;;5016413;28;20679;-89
2024/02/10 12:19:10;;;;;;;97.40;36.77;;;7.10;97.20;;;;;;5016550;28;20208;-88
2024/02/10 12:21:41;;;;;;;125.37;39.67;;;7.10;97.20;;;;;;5016247;28;20173;-89
2024/02/10 12:24:11;;;;;;;127.60;41.77;;;7.10;97.20;;;;;;5033918;28;20152;-89
2024/02/10 12:26:37;;;;;;;136.20;45.37;;;7.10;97.20;;;;;;5016236;28;20255;-89
2024/02/10 12:29:04;;;;;;;139.60;43.40;;;7.20;97.20;;;;;;5016177;28;20213;-89
2024/02/10 12:31:30;;;;;;;141.53;40.70;;;7.20;97.20;;;;;;5016124;28;20173;-89
2024/02/10 12:33:55;;;;;;;127.93;38.77;;;7.20;97.20;;;;;;5016089;28;20667;-89